createdAt,value
2023-03-25T00:00:54.031Z,88.37
2023-03-25T00:01:54.090Z,88.37
2023-03-25T00:02:54.106Z,88.47
2023-03-25T00:03:53.992Z,88.57
2023-03-25T00:04:54.091Z,88.68
2023-03-25T00:05:53.995Z,88.17
2023-03-25T00:06:53.979Z,88.98
2023-03-25T00:07:54.190Z,89.29
2023-03-25T00:08:54.004Z,89.09
2023-03-25T00:09:55.475Z,89.19
2023-03-25T00:10:53.915Z,89.50
2023-03-25T00:11:53.907Z,89.75
2023-03-25T00:12:53.889Z,89.84
2023-03-25T00:13:53.888Z,89.81
2023-03-25T00:14:53.889Z,89.60
2023-03-25T00:15:53.870Z,89.81
2023-03-25T00:16:53.886Z,90.11
2023-03-25T00:17:53.893Z,89.81
2023-03-25T00:18:53.850Z,89.19
2023-03-25T00:19:53.818Z,89.39
2023-03-25T00:20:53.801Z,89.81
2023-03-25T00:21:53.809Z,90.32
2023-03-25T00:22:53.822Z,90.26
2023-03-25T00:23:53.777Z,90.42
2023-03-25T00:24:53.774Z,90.26
2023-03-25T00:25:53.747Z,90.11
2023-03-25T00:26:53.755Z,90.56
2023-03-25T00:27:53.737Z,90.05
2023-03-25T00:28:53.784Z,90.67
2023-03-25T00:29:53.704Z,90.67
2023-03-25T00:30:53.740Z,90.87
2023-03-25T00:31:53.681Z,90.77
2023-03-25T00:32:53.733Z,90.67
2023-03-25T00:33:53.669Z,90.56
2023-03-25T00:34:53.663Z,90.67
2023-03-25T00:35:53.812Z,90.83
2023-03-25T00:36:53.642Z,90.56
2023-03-25T00:37:53.679Z,90.67
2023-03-25T00:38:53.594Z,90.36
2023-03-25T00:39:53.650Z,90.36
2023-03-25T00:40:53.598Z,90.77
2023-03-25T00:41:53.569Z,90.77
2023-03-25T00:42:53.566Z,90.97
2023-03-25T00:43:53.580Z,90.77
2023-03-25T00:44:53.593Z,90.77
2023-03-25T00:45:53.677Z,90.87
2023-03-25T00:46:53.543Z,90.87
2023-03-25T00:47:53.667Z,90.73
2023-03-25T00:48:53.527Z,90.67
2023-03-25T00:49:53.581Z,90.77
2023-03-25T00:50:53.488Z,90.77
2023-03-25T00:51:54.414Z,91.18
2023-03-25T00:52:54.439Z,90.77
2023-03-25T00:53:53.497Z,91.02
2023-03-25T00:54:53.422Z,90.56
2023-03-25T00:55:53.469Z,91.28
2023-03-25T00:56:53.497Z,90.77
2023-03-25T00:57:53.443Z,90.87
2023-03-25T00:58:53.383Z,91.28
2023-03-25T00:59:53.402Z,91.18
2023-03-25T01:00:53.405Z,90.87
2023-03-25T01:01:53.480Z,91.38
2023-03-25T01:02:53.514Z,91.49
2023-03-25T01:03:53.324Z,91.49
2023-03-25T01:04:53.359Z,91.74
2023-03-25T01:05:53.297Z,91.69
2023-03-25T01:06:53.309Z,91.69
2023-03-25T01:07:53.302Z,91.49
2023-03-25T01:08:53.266Z,91.33
2023-03-25T01:09:53.278Z,91.63
2023-03-25T01:10:53.244Z,91.63
2023-03-25T01:11:53.233Z,91.74
2023-03-25T01:12:53.220Z,91.42
2023-03-25T01:13:53.227Z,91.74
2023-03-25T01:14:53.270Z,91.74
2023-03-25T01:15:53.525Z,91.63
2023-03-25T01:16:53.169Z,91.94
2023-03-25T01:17:53.218Z,92.04
2023-03-25T01:18:53.167Z,91.74
2023-03-25T01:19:53.137Z,91.63
2023-03-25T01:20:53.124Z,91.42
2023-03-25T01:21:53.134Z,91.84
2023-03-25T01:22:53.139Z,91.63
2023-03-25T01:23:53.231Z,91.84
2023-03-25T01:24:53.089Z,92.04
2023-03-25T01:25:53.083Z,91.94
2023-03-25T01:26:53.108Z,92.04
2023-03-25T01:27:53.097Z,91.84
2023-03-25T01:28:53.038Z,92.14
2023-03-25T01:29:53.022Z,92.04
2023-03-25T01:30:53.183Z,92.04
2023-03-25T01:31:53.003Z,91.84
2023-03-25T01:32:53.048Z,91.74
2023-03-25T01:33:53.176Z,91.94
2023-03-25T01:34:53.006Z,91.94
2023-03-25T01:35:53.069Z,91.94
2023-03-25T01:36:52.946Z,92.35
2023-03-25T01:37:52.940Z,92.14
2023-03-25T01:38:52.989Z,92.40
2023-03-25T01:39:52.930Z,92.70
2023-03-25T01:40:52.903Z,92.29
2023-03-25T01:41:52.892Z,92.19
2023-03-25T01:42:52.879Z,92.60
2023-03-25T01:43:52.873Z,92.29
2023-03-25T01:44:52.872Z,92.50
2023-03-25T01:45:52.869Z,92.40
2023-03-25T01:46:53.377Z,92.70
2023-03-25T01:47:52.934Z,92.60
2023-03-25T01:48:52.823Z,92.80
2023-03-25T01:49:52.804Z,92.70
2023-03-25T01:50:52.791Z,92.29
2023-03-25T01:51:52.939Z,92.60
2023-03-25T01:52:52.760Z,92.80
2023-03-25T01:53:52.772Z,92.80
2023-03-25T01:54:52.804Z,92.60
2023-03-25T01:55:53.034Z,92.50
2023-03-25T01:56:52.782Z,92.40
2023-03-25T01:57:52.718Z,92.40
2023-03-25T01:58:52.731Z,92.60
2023-03-25T01:59:52.753Z,92.80
2023-03-25T02:00:52.789Z,92.80
2023-03-25T02:01:52.694Z,92.60
2023-03-25T02:02:52.814Z,92.50
2023-03-25T02:03:52.779Z,92.60
2023-03-25T02:04:52.719Z,92.80
2023-03-25T02:05:52.895Z,92.54
2023-03-25T02:06:52.738Z,92.44
2023-03-25T02:07:52.677Z,93.12
2023-03-25T02:08:52.613Z,93.21
2023-03-25T02:09:52.579Z,92.95
2023-03-25T02:10:52.583Z,93.21
2023-03-25T02:11:52.553Z,93.26
2023-03-25T02:12:52.575Z,92.85
2023-03-25T02:13:52.541Z,93.21
2023-03-25T02:14:52.539Z,93.12
2023-03-25T02:15:52.682Z,93.12
2023-03-25T02:16:52.523Z,93.01
2023-03-25T02:17:52.563Z,92.91
2023-03-25T02:18:52.519Z,93.32
2023-03-25T02:19:53.415Z,93.32
2023-03-25T02:20:52.549Z,93.12
2023-03-25T02:21:52.443Z,93.12
2023-03-25T02:22:52.461Z,92.40
2023-03-25T02:23:52.529Z,92.80
2023-03-25T02:24:52.402Z,92.40
2023-03-25T02:25:52.562Z,92.46
2023-03-25T02:26:52.468Z,92.50
2023-03-25T02:27:52.510Z,92.46
2023-03-25T02:28:52.356Z,92.46
2023-03-25T02:29:52.351Z,92.66
2023-03-25T02:30:52.344Z,92.66
2023-03-25T02:31:52.390Z,92.55
2023-03-25T02:32:52.359Z,92.14
2023-03-25T02:33:52.302Z,92.35
2023-03-25T02:34:52.297Z,92.76
2023-03-25T02:35:52.665Z,92.35
2023-03-25T02:36:52.286Z,92.14
2023-03-25T02:37:52.261Z,92.41
2023-03-25T02:38:52.246Z,92.35
2023-03-25T02:39:52.257Z,92.00
2023-03-25T02:40:52.283Z,91.94
2023-03-25T02:41:52.255Z,91.80
2023-03-25T02:42:52.426Z,91.80
2023-03-25T02:43:52.199Z,91.84
2023-03-25T02:44:53.027Z,91.63
2023-03-25T02:45:52.475Z,91.59
2023-03-25T02:46:52.169Z,91.38
2023-03-25T02:47:52.163Z,91.42
2023-03-25T02:48:52.133Z,91.49
2023-03-25T02:49:52.174Z,91.59
2023-03-25T02:50:52.128Z,91.59
2023-03-25T02:51:52.108Z,91.28
2023-03-25T02:52:52.096Z,91.38
2023-03-25T02:53:52.078Z,91.42
2023-03-25T02:54:52.080Z,91.33
2023-03-25T02:55:52.288Z,91.28
2023-03-25T02:56:52.096Z,91.42
2023-03-25T02:57:52.040Z,91.74
2023-03-25T02:58:52.045Z,91.38
2023-03-25T02:59:52.023Z,91.69
2023-03-25T03:00:52.061Z,91.59
2023-03-25T03:01:51.990Z,91.53
2023-03-25T03:02:52.122Z,91.08
2023-03-25T03:03:51.986Z,91.28
2023-03-25T03:04:51.976Z,91.49
2023-03-25T03:05:52.103Z,91.53
2023-03-25T03:06:51.931Z,91.18
2023-03-25T03:07:51.926Z,91.18
2023-03-25T03:08:51.946Z,91.33
2023-03-25T03:09:51.932Z,91.18
2023-03-25T03:10:51.889Z,91.38
2023-03-25T03:11:51.929Z,91.28
2023-03-25T03:12:51.896Z,91.38
2023-03-25T03:13:51.856Z,91.18
2023-03-25T03:14:51.864Z,91.33
2023-03-25T03:15:51.960Z,91.38
2023-03-25T03:16:51.839Z,91.18
2023-03-25T03:17:51.928Z,91.18
2023-03-25T03:18:51.820Z,91.59
2023-03-25T03:19:51.812Z,91.59
2023-03-25T03:20:51.786Z,91.59
2023-03-25T03:21:51.791Z,91.90
2023-03-25T03:22:51.768Z,91.08
2023-03-25T03:23:51.797Z,90.77
2023-03-25T03:24:51.734Z,90.77
2023-03-25T03:25:51.929Z,90.46
2023-03-25T03:26:51.709Z,90.97
2023-03-25T03:27:51.707Z,90.73
2023-03-25T03:28:51.681Z,90.87
2023-03-25T03:29:52.000Z,91.49
2023-03-25T03:30:51.855Z,91.55
2023-03-25T03:32:06.064Z,92.10
2023-03-25T03:32:52.699Z,93.08
2023-03-25T03:33:51.670Z,93.08
2023-03-25T03:34:52.461Z,93.13
2023-03-25T03:35:51.959Z,93.74
2023-03-25T03:36:51.601Z,94.01
2023-03-25T03:37:51.585Z,93.90
2023-03-25T03:38:51.597Z,94.15
2023-03-25T03:39:51.596Z,94.56
2023-03-25T03:40:51.550Z,95.14
2023-03-25T03:41:51.545Z,95.86
2023-03-25T03:42:51.539Z,96.06
2023-03-25T03:43:51.535Z,95.79
2023-03-25T03:44:51.678Z,96.26
2023-03-25T03:45:51.737Z,96.82
2023-03-25T03:46:51.530Z,98.05
2023-03-25T03:47:51.556Z,98.87
2023-03-25T03:48:51.459Z,99.08
2023-03-25T03:49:51.467Z,99.22
2023-03-25T03:50:51.452Z,99.43
2023-03-25T03:51:51.433Z,99.08
2023-03-25T03:52:51.422Z,99.95
2023-03-25T03:53:51.413Z,99.79
2023-03-25T03:54:51.426Z,99.99
2023-03-25T03:55:51.501Z,99.43
2023-03-25T03:56:51.409Z,99.99
2023-03-25T03:57:51.368Z,99.99
2023-03-25T03:58:51.356Z,99.99
2023-03-25T03:59:51.351Z,99.99
2023-03-25T04:00:51.350Z,99.95
2023-03-25T04:01:51.361Z,99.54
2023-03-25T04:02:51.381Z,99.63
2023-03-25T04:03:51.322Z,99.84
2023-03-25T04:04:51.294Z,99.99
2023-03-25T04:05:51.560Z,99.99
2023-03-25T04:06:51.269Z,99.99
2023-03-25T04:07:51.264Z,99.99
2023-03-25T04:08:51.234Z,99.99
2023-03-25T04:09:51.223Z,99.99
2023-03-25T04:10:51.229Z,99.95
2023-03-25T04:11:51.216Z,99.99
2023-03-25T04:12:51.188Z,99.99
2023-03-25T04:13:51.195Z,99.99
2023-03-25T04:14:51.269Z,99.99
2023-03-25T04:15:51.443Z,99.84
2023-03-25T04:16:51.147Z,99.99
2023-03-25T04:17:51.190Z,99.84
2023-03-25T04:18:51.142Z,99.99
2023-03-25T04:19:51.118Z,99.99
2023-03-25T04:20:51.528Z,99.95
2023-03-25T04:21:51.088Z,99.63
2023-03-25T04:22:51.078Z,99.54
2023-03-25T04:23:51.067Z,99.18
2023-03-25T04:24:51.063Z,99.12
2023-03-25T04:25:51.277Z,98.92
2023-03-25T04:26:51.039Z,99.02
2023-03-25T04:27:51.023Z,99.18
2023-03-25T04:28:51.045Z,98.46
2023-03-25T04:29:51.001Z,97.95
2023-03-25T04:30:51.046Z,98.51
2023-03-25T04:31:51.059Z,98.25
2023-03-25T04:32:51.032Z,98.25
2023-03-25T04:33:50.958Z,98.05
2023-03-25T04:34:50.975Z,98.36
2023-03-25T04:35:51.162Z,98.16
2023-03-25T04:36:50.956Z,97.54
2023-03-25T04:37:50.910Z,97.85
2023-03-25T04:38:50.892Z,97.54
2023-03-25T04:39:50.886Z,97.44
2023-03-25T04:40:50.907Z,97.85
2023-03-25T04:41:50.904Z,97.74
2023-03-25T04:42:50.868Z,97.54
2023-03-25T04:43:50.860Z,97.54
2023-03-25T04:44:50.838Z,97.03
2023-03-25T04:45:51.048Z,97.13
2023-03-25T04:46:50.805Z,96.51
2023-03-25T04:47:50.868Z,96.51
2023-03-25T04:48:50.801Z,96.31
2023-03-25T04:49:50.771Z,96.10
2023-03-25T04:50:50.778Z,96.31
2023-03-25T04:51:50.750Z,96.51
2023-03-25T04:52:50.762Z,96.31
2023-03-25T04:53:50.767Z,96.31
2023-03-25T04:54:50.728Z,95.79
2023-03-25T04:55:50.903Z,96.00
2023-03-25T04:56:50.739Z,96.00
2023-03-25T04:57:50.742Z,95.79
2023-03-25T04:58:51.488Z,95.49
2023-03-25T04:59:50.672Z,95.79
2023-03-25T05:00:50.686Z,95.79
2023-03-25T05:01:50.643Z,95.49
2023-03-25T05:02:50.680Z,95.59
2023-03-25T05:03:50.616Z,95.84
2023-03-25T05:04:50.604Z,95.84
2023-03-25T05:05:50.675Z,95.59
2023-03-25T05:06:50.660Z,95.59
2023-03-25T05:07:50.592Z,95.69
2023-03-25T05:08:50.564Z,94.98
2023-03-25T05:09:50.545Z,95.49
2023-03-25T05:10:50.551Z,95.69
2023-03-25T05:11:50.563Z,95.94
2023-03-25T05:12:50.552Z,95.69
2023-03-25T05:13:50.498Z,95.79
2023-03-25T05:14:50.488Z,95.59
2023-03-25T05:15:50.690Z,95.79
2023-03-25T05:16:50.486Z,95.18
2023-03-25T05:17:50.533Z,95.84
2023-03-25T05:18:50.443Z,95.84
2023-03-25T05:19:50.432Z,94.71
2023-03-25T05:20:50.423Z,94.98
2023-03-25T05:21:50.429Z,95.94
2023-03-25T05:22:50.417Z,95.74
2023-03-25T05:23:50.380Z,95.12
2023-03-25T05:24:50.372Z,95.74
2023-03-25T05:25:50.572Z,95.64
2023-03-25T05:26:50.382Z,95.43
2023-03-25T05:27:50.357Z,94.92
2023-03-25T05:28:50.334Z,95.12
2023-03-25T05:29:50.945Z,94.81
2023-03-25T05:30:50.302Z,94.92
2023-03-25T05:31:50.352Z,95.02
2023-03-25T05:32:50.379Z,94.71
2023-03-25T05:33:51.269Z,94.81
2023-03-25T05:34:50.258Z,95.12
2023-03-25T05:35:50.428Z,94.81
2023-03-25T05:36:50.441Z,94.40
2023-03-25T05:37:50.231Z,94.51
2023-03-25T05:38:50.242Z,94.51
2023-03-25T05:39:50.202Z,94.40
2023-03-25T05:40:50.216Z,94.20
2023-03-25T05:41:50.201Z,94.51
2023-03-25T05:42:50.172Z,94.10
2023-03-25T05:43:50.169Z,94.10
2023-03-25T05:44:50.170Z,93.85
2023-03-25T05:45:50.450Z,93.54
2023-03-25T05:46:50.155Z,92.93
2023-03-25T05:47:50.167Z,92.61
2023-03-25T05:48:50.110Z,92.06
2023-03-25T05:49:50.098Z,92.36
2023-03-25T05:50:50.098Z,91.55
2023-03-25T05:51:50.070Z,91.35
2023-03-25T05:52:50.104Z,91.55
2023-03-25T05:53:50.147Z,91.61
2023-03-25T05:54:50.051Z,90.69
2023-03-25T05:55:51.146Z,90.79
2023-03-25T05:56:50.014Z,90.79
2023-03-25T05:57:50.136Z,90.58
2023-03-25T05:58:49.996Z,89.97
2023-03-25T05:59:49.976Z,90.28
2023-03-25T06:00:50.496Z,89.97
2023-03-25T06:01:49.961Z,90.28
2023-03-25T06:02:50.016Z,89.45
2023-03-25T06:03:50.031Z,89.66
2023-03-25T06:04:49.935Z,89.45
2023-03-25T06:05:50.062Z,90.17
2023-03-25T06:06:49.914Z,89.97
2023-03-25T06:07:49.889Z,90.07
2023-03-25T06:08:49.926Z,89.97
2023-03-25T06:09:49.880Z,89.76
2023-03-25T06:10:49.955Z,89.45
2023-03-25T06:11:49.850Z,89.56
2023-03-25T06:12:49.845Z,89.66
2023-03-25T06:13:49.825Z,89.66
2023-03-25T06:14:49.836Z,89.66
2023-03-25T06:15:50.102Z,89.45
2023-03-25T06:16:49.830Z,88.94
2023-03-25T06:17:49.811Z,88.59
2023-03-25T06:18:49.798Z,88.53
2023-03-25T06:19:49.774Z,88.59
2023-03-25T06:20:49.772Z,89.51
2023-03-25T06:21:49.737Z,89.31
2023-03-25T06:22:49.728Z,89.83
2023-03-25T06:23:49.710Z,89.92
2023-03-25T06:24:49.759Z,89.42
2023-03-25T06:25:49.891Z,89.51
2023-03-25T06:26:49.839Z,89.25
2023-03-25T06:27:49.684Z,88.90
2023-03-25T06:28:49.659Z,88.49
2023-03-25T06:29:49.648Z,87.77
2023-03-25T06:30:49.651Z,87.77
2023-03-25T06:31:49.634Z,87.47
2023-03-25T06:32:49.674Z,87.88
2023-03-25T06:33:49.725Z,87.37
2023-03-25T06:34:49.588Z,87.53
2023-03-25T06:35:49.810Z,86.40
2023-03-25T06:36:49.592Z,85.89
2023-03-25T06:37:49.560Z,85.79
2023-03-25T06:38:49.552Z,85.28
2023-03-25T06:39:49.528Z,85.44
2023-03-25T06:40:49.521Z,85.55
2023-03-25T06:41:49.572Z,85.24
2023-03-25T06:42:49.637Z,85.24
2023-03-25T06:43:49.491Z,84.42
2023-03-25T06:44:49.488Z,84.72
2023-03-25T06:45:49.800Z,84.69
2023-03-25T06:46:49.490Z,84.69
2023-03-25T06:47:49.557Z,84.28
2023-03-25T06:48:49.429Z,83.56
2023-03-25T06:49:49.563Z,84.63
2023-03-25T06:50:49.409Z,85.14
2023-03-25T06:51:49.405Z,85.55
2023-03-25T06:52:49.408Z,85.28
2023-03-25T06:53:49.462Z,85.24
2023-03-25T06:54:49.364Z,85.44
2023-03-25T06:55:49.590Z,85.24
2023-03-25T06:56:49.383Z,85.24
2023-03-25T06:57:49.373Z,85.24
2023-03-25T06:58:49.361Z,85.24
2023-03-25T06:59:49.325Z,85.55
2023-03-25T07:00:49.298Z,85.64
2023-03-25T07:01:49.354Z,85.55
2023-03-25T07:02:49.328Z,85.28
2023-03-25T07:03:49.285Z,85.38
2023-03-25T07:04:49.280Z,85.69
2023-03-25T07:05:49.555Z,85.34
2023-03-25T07:06:49.244Z,85.14
2023-03-25T07:07:49.238Z,85.44
2023-03-25T07:08:49.203Z,84.99
2023-03-25T07:09:49.204Z,82.10
2023-03-25T07:10:49.193Z,76.18
2023-03-25T07:11:49.178Z,73.67
2023-03-25T07:12:49.168Z,70.86
2023-03-25T07:13:49.190Z,67.93
2023-03-25T07:14:49.177Z,68.36
2023-03-25T07:15:49.356Z,68.56
2023-03-25T07:16:49.127Z,68.36
2023-03-25T07:17:49.275Z,66.31
2023-03-25T07:18:49.097Z,63.42
2023-03-25T07:19:49.102Z,62.71
2023-03-25T07:20:49.125Z,62.68
2023-03-25T07:21:49.090Z,61.39
2023-03-25T07:22:49.069Z,60.02
2023-03-25T07:23:49.557Z,58.86
2023-03-25T07:24:49.037Z,57.19
2023-03-25T07:25:49.144Z,56.86
2023-03-25T07:26:49.021Z,55.05
2023-03-25T07:27:49.053Z,55.96
2023-03-25T07:28:48.980Z,56.59
2023-03-25T07:29:48.989Z,56.38
2023-03-25T07:30:49.184Z,54.65
2023-03-25T07:31:48.991Z,54.10
2023-03-25T07:32:49.051Z,54.00
2023-03-25T07:33:48.945Z,54.38
2023-03-25T07:34:48.928Z,52.84
2023-03-25T07:35:49.201Z,52.42
2023-03-25T07:36:48.904Z,51.97
2023-03-25T07:37:48.886Z,50.87
2023-03-25T07:38:48.928Z,49.91
2023-03-25T07:39:48.873Z,49.52
2023-03-25T07:40:50.325Z,50.12
2023-03-25T07:41:48.843Z,48.42
2023-03-25T07:42:48.831Z,48.34
2023-03-25T07:43:48.815Z,48.44
2023-03-25T07:44:48.825Z,49.34
2023-03-25T07:45:48.845Z,48.52
2023-03-25T07:46:48.799Z,48.54
2023-03-25T07:47:48.814Z,48.27
2023-03-25T07:48:48.898Z,47.95
2023-03-25T07:49:48.773Z,46.31
2023-03-25T07:50:48.744Z,45.39
2023-03-25T07:51:48.966Z,45.76
2023-03-25T07:52:48.733Z,45.40
2023-03-25T07:53:48.708Z,47.03
2023-03-25T07:54:48.700Z,46.59
2023-03-25T07:55:49.005Z,47.14
2023-03-25T07:56:48.726Z,48.91
2023-03-25T07:57:48.697Z,49.88
2023-03-25T07:58:48.679Z,50.66
2023-03-25T07:59:48.638Z,51.68
2023-03-25T08:00:48.661Z,50.86
2023-03-25T08:01:48.711Z,51.86
2023-03-25T08:02:48.792Z,51.76
2023-03-25T08:03:48.734Z,52.80
2023-03-25T08:04:48.587Z,52.64
2023-03-25T08:05:48.839Z,54.41
2023-03-25T08:06:48.581Z,55.24
2023-03-25T08:07:48.571Z,55.66
2023-03-25T08:08:48.706Z,56.83
2023-03-25T08:09:48.623Z,57.67
2023-03-25T08:10:48.740Z,58.50
2023-03-25T08:11:48.508Z,59.32
2023-03-25T08:12:48.507Z,60.89
2023-03-25T08:13:48.525Z,62.54
2023-03-25T08:14:48.469Z,62.57
2023-03-25T08:15:48.635Z,62.78
2023-03-25T08:16:48.467Z,62.37
2023-03-25T08:17:48.452Z,62.17
2023-03-25T08:18:48.496Z,62.04
2023-03-25T08:19:48.418Z,62.14
2023-03-25T08:21:05.079Z,62.24
2023-03-25T08:21:49.005Z,61.07
2023-03-25T08:22:48.411Z,59.74
2023-03-25T08:23:48.402Z,57.06
2023-03-25T08:24:48.356Z,56.02
2023-03-25T08:25:48.425Z,56.58
2023-03-25T08:26:48.342Z,57.54
2023-03-25T08:27:48.454Z,59.12
2023-03-25T08:28:49.044Z,60.36
2023-03-25T08:29:48.295Z,61.37
2023-03-25T08:30:48.301Z,60.71
2023-03-25T08:31:48.318Z,57.05
2023-03-25T08:32:48.278Z,53.52
2023-03-25T08:33:48.271Z,53.02
2023-03-25T08:34:48.523Z,52.94
2023-03-25T08:35:48.292Z,51.86
2023-03-25T08:36:48.217Z,49.36
2023-03-25T08:37:48.206Z,49.43
2023-03-25T08:38:48.206Z,50.76
2023-03-25T08:39:48.187Z,51.21
2023-03-25T08:40:48.222Z,53.20
2023-03-25T08:41:48.172Z,53.12
2023-03-25T08:42:48.153Z,54.46
2023-03-25T08:43:48.141Z,54.99
2023-03-25T08:44:48.145Z,55.36
2023-03-25T08:45:48.167Z,55.41
2023-03-25T08:46:48.107Z,55.34
2023-03-25T08:47:48.129Z,56.30
2023-03-25T08:48:50.007Z,57.60
2023-03-25T08:49:48.101Z,58.74
2023-03-25T08:50:48.084Z,58.80
2023-03-25T08:51:48.077Z,59.53
2023-03-25T08:52:48.075Z,59.10
2023-03-25T08:53:48.310Z,59.10
2023-03-25T08:54:48.014Z,60.37
2023-03-25T08:55:48.182Z,61.08
2023-03-25T08:56:48.112Z,60.17
2023-03-25T08:57:47.988Z,60.74
2023-03-25T08:58:48.003Z,61.98
2023-03-25T08:59:47.969Z,62.39
2023-03-25T09:00:48.546Z,62.51
2023-03-25T09:01:48.047Z,58.92
2023-03-25T09:02:47.999Z,57.17
2023-03-25T09:03:47.956Z,57.87
2023-03-25T09:04:47.931Z,57.70
2023-03-25T09:05:47.907Z,58.34
2023-03-25T09:07:11.125Z,59.20
2023-03-25T09:07:48.907Z,59.46
2023-03-25T09:08:50.485Z,60.60
2023-03-25T09:09:47.866Z,60.94
2023-03-25T09:10:47.984Z,61.98
2023-03-25T09:11:47.936Z,62.72
2023-03-25T09:12:47.901Z,63.26
2023-03-25T09:13:47.823Z,64.11
2023-03-25T09:14:47.808Z,63.80
2023-03-25T09:15:48.572Z,64.00
2023-03-25T09:16:47.784Z,64.38
2023-03-25T09:17:47.809Z,63.97
2023-03-25T09:18:48.515Z,64.38
2023-03-25T09:19:47.866Z,64.58
2023-03-25T09:20:47.751Z,63.67
2023-03-25T09:21:47.730Z,63.54
2023-03-25T09:22:47.862Z,63.23
2023-03-25T09:23:47.692Z,62.72
2023-03-25T09:24:47.681Z,63.43
2023-03-25T09:25:48.714Z,61.02
2023-03-25T09:26:47.738Z,57.80
2023-03-25T09:27:47.671Z,57.47
2023-03-25T09:28:47.636Z,56.00
2023-03-25T09:29:47.630Z,56.81
2023-03-25T09:30:47.611Z,56.02
2023-03-25T09:31:47.600Z,56.43
2023-03-25T09:32:48.110Z,56.96
2023-03-25T09:33:48.520Z,57.67
2023-03-25T09:34:47.577Z,57.40
2023-03-25T09:35:47.579Z,58.39
2023-03-25T09:36:48.667Z,59.53
2023-03-25T09:37:51.761Z,60.17
2023-03-25T09:38:47.551Z,60.07
2023-03-25T09:39:47.518Z,60.43
2023-03-25T09:40:47.508Z,61.85
2023-03-25T09:41:47.509Z,62.29
2023-03-25T09:42:47.503Z,62.52
2023-03-25T09:43:47.479Z,63.36
2023-03-25T09:44:47.456Z,64.28
2023-03-25T09:45:47.490Z,64.58
2023-03-25T09:46:47.503Z,63.77
2023-03-25T09:47:47.447Z,64.00
2023-03-25T09:48:47.438Z,63.39
2023-03-25T09:49:47.402Z,63.59
2023-03-25T09:50:47.413Z,64.11
2023-03-25T09:51:47.432Z,63.67
2023-03-25T09:52:47.371Z,63.46
2023-03-25T09:53:47.359Z,63.23
2023-03-25T09:54:47.435Z,62.39
2023-03-25T09:55:47.429Z,62.29
2023-03-25T09:56:47.377Z,61.44
2023-03-25T09:57:47.309Z,60.20
2023-03-25T09:58:47.319Z,60.24
2023-03-25T09:59:47.299Z,59.12
2023-03-25T10:00:47.291Z,58.52
2023-03-25T10:01:47.348Z,59.05
2023-03-25T10:02:47.312Z,58.62
2023-03-25T10:03:47.253Z,57.91
2023-03-25T10:04:47.233Z,58.16
2023-03-25T10:05:47.225Z,55.24
2023-03-25T10:06:47.228Z,51.79
2023-03-25T10:07:47.204Z,50.78
2023-03-25T10:08:47.187Z,51.43
2023-03-25T10:09:47.247Z,52.39
2023-03-25T10:10:47.183Z,52.84
2023-03-25T10:11:47.183Z,54.71
2023-03-25T10:12:47.147Z,55.44
2023-03-25T10:13:48.784Z,56.38
2023-03-25T10:14:47.158Z,56.51
2023-03-25T10:15:47.171Z,57.02
2023-03-25T10:16:47.130Z,57.24
2023-03-25T10:17:47.148Z,57.78
2023-03-25T10:18:47.076Z,57.10
2023-03-25T10:19:47.073Z,57.53
2023-03-25T10:20:47.054Z,58.17
2023-03-25T10:21:47.108Z,58.70
2023-03-25T10:22:47.037Z,59.54
2023-03-25T10:23:47.024Z,59.64
2023-03-25T10:24:47.035Z,59.34
2023-03-25T10:25:47.003Z,59.14
2023-03-25T10:26:47.052Z,58.83
2023-03-25T10:27:46.975Z,59.31
2023-03-25T10:28:46.972Z,58.50
2023-03-25T10:29:46.959Z,58.45
2023-03-25T10:30:46.945Z,57.53
2023-03-25T10:31:47.042Z,56.67
2023-03-25T10:32:46.952Z,54.89
2023-03-25T10:33:46.946Z,55.47
2023-03-25T10:34:46.924Z,54.03
2023-03-25T10:35:47.057Z,50.87
2023-03-25T10:36:46.888Z,50.98
2023-03-25T10:37:46.866Z,50.70
2023-03-25T10:38:46.855Z,50.98
2023-03-25T10:39:46.838Z,50.75
2023-03-25T10:40:46.830Z,50.87
2023-03-25T10:41:46.882Z,51.07
2023-03-25T10:42:47.019Z,50.95
2023-03-25T10:43:46.890Z,52.51
2023-03-25T10:44:46.784Z,53.34
2023-03-25T10:45:47.616Z,54.69
2023-03-25T10:46:46.816Z,55.52
2023-03-25T10:47:46.901Z,55.43
2023-03-25T10:48:46.738Z,56.05
2023-03-25T10:49:46.729Z,56.34
2023-03-25T10:50:46.734Z,56.64
2023-03-25T10:51:46.707Z,53.00
2023-03-25T10:52:46.856Z,49.40
2023-03-25T10:53:47.550Z,45.92
2023-03-25T10:54:47.591Z,42.99
2023-03-25T10:55:46.661Z,41.80
2023-03-25T10:56:46.685Z,42.60
2023-03-25T10:57:46.736Z,43.40
2023-03-25T10:58:46.653Z,42.96
2023-03-25T10:59:46.701Z,42.29
2023-03-25T11:00:46.640Z,41.38
2023-03-25T11:01:46.687Z,40.48
2023-03-25T11:02:46.624Z,38.43
2023-03-25T11:03:46.570Z,38.51
2023-03-25T11:04:49.627Z,36.49
2023-03-25T11:05:46.546Z,36.27
2023-03-25T11:06:47.112Z,36.66
2023-03-25T11:07:46.524Z,36.36
2023-03-25T11:08:46.531Z,36.66
2023-03-25T11:09:46.504Z,36.25
2023-03-25T11:10:46.494Z,36.55
2023-03-25T11:11:46.507Z,37.05
2023-03-25T11:12:46.549Z,39.28
2023-03-25T11:13:46.477Z,41.75
2023-03-25T11:14:46.543Z,43.46
2023-03-25T11:15:54.384Z,46.06
2023-03-25T11:16:46.506Z,47.58
2023-03-25T11:17:46.444Z,48.98
2023-03-25T11:18:46.632Z,50.62
2023-03-25T11:19:46.388Z,51.45
2023-03-25T11:20:46.374Z,51.98
2023-03-25T11:21:46.369Z,52.39
2023-03-25T11:22:46.387Z,53.19
2023-03-25T11:23:46.359Z,52.36
2023-03-25T11:24:46.334Z,52.48
2023-03-25T11:25:46.322Z,52.19
2023-03-25T11:26:46.309Z,51.65
2023-03-25T11:27:46.299Z,51.32
2023-03-25T11:28:46.314Z,50.98
2023-03-25T11:29:46.283Z,50.24
2023-03-25T11:30:46.303Z,50.22
2023-03-25T11:31:46.255Z,50.15
2023-03-25T11:32:46.244Z,51.40
2023-03-25T11:33:46.256Z,52.46
2023-03-25T11:34:46.249Z,53.55
2023-03-25T11:35:46.207Z,55.70
2023-03-25T11:36:46.193Z,57.02
2023-03-25T11:37:46.662Z,55.44
2023-03-25T11:38:46.172Z,53.47
2023-03-25T11:39:46.166Z,52.11
2023-03-25T11:40:46.149Z,50.12
2023-03-25T11:41:46.140Z,50.15
2023-03-25T11:42:46.247Z,50.70
2023-03-25T11:43:46.139Z,51.50
2023-03-25T11:44:46.110Z,51.73
2023-03-25T11:45:46.133Z,52.06
2023-03-25T11:46:46.340Z,52.87
2023-03-25T11:47:46.113Z,53.17
2023-03-25T11:48:46.082Z,53.38
2023-03-25T11:49:46.055Z,53.40
2023-03-25T11:50:46.041Z,54.23
2023-03-25T11:51:46.044Z,54.23
2023-03-25T11:52:46.088Z,54.74
2023-03-25T11:53:46.023Z,55.37
2023-03-25T11:54:46.019Z,55.70
2023-03-25T11:55:45.990Z,56.41
2023-03-25T11:56:45.985Z,56.31
2023-03-25T11:57:45.965Z,57.24
2023-03-25T11:58:45.969Z,56.89
2023-03-25T11:59:45.945Z,54.79
2023-03-25T12:00:45.927Z,52.74
2023-03-25T12:01:46.634Z,53.55
2023-03-25T12:02:46.030Z,52.74
2023-03-25T12:03:46.050Z,52.72
2023-03-25T12:04:46.627Z,52.72
2023-03-25T12:05:45.877Z,52.69
2023-03-25T12:06:45.896Z,53.42
2023-03-25T12:07:45.853Z,53.14
2023-03-25T12:08:45.864Z,54.46
2023-03-25T12:09:45.877Z,54.89
2023-03-25T12:10:45.818Z,54.99
2023-03-25T12:11:45.814Z,55.16
2023-03-25T12:12:45.798Z,54.33
2023-03-25T12:13:45.806Z,52.87
2023-03-25T12:14:45.775Z,52.06
2023-03-25T12:15:45.816Z,51.96
2023-03-25T12:16:45.752Z,53.83
2023-03-25T12:17:45.775Z,53.34
2023-03-25T12:18:45.753Z,54.58
2023-03-25T12:19:45.739Z,54.89
2023-03-25T12:20:45.721Z,54.51
2023-03-25T12:21:45.704Z,55.29
2023-03-25T12:22:45.697Z,54.36
2023-03-25T12:23:45.688Z,53.42
2023-03-25T12:24:45.666Z,53.12
2023-03-25T12:25:45.657Z,53.42
2023-03-25T12:26:45.645Z,54.66
2023-03-25T12:27:45.631Z,53.27
2023-03-25T12:28:45.636Z,53.72
2023-03-25T12:29:45.609Z,54.74
2023-03-25T12:30:45.604Z,53.42
2023-03-25T12:31:45.609Z,53.72
2023-03-25T12:32:45.596Z,52.99
2023-03-25T12:33:45.578Z,53.42
2023-03-25T12:34:45.628Z,53.34
2023-03-25T12:35:45.542Z,53.34
2023-03-25T12:36:45.533Z,54.86
2023-03-25T12:37:45.579Z,53.85
2023-03-25T12:38:45.528Z,53.42
2023-03-25T12:39:45.773Z,53.34
2023-03-25T12:40:45.483Z,54.41
2023-03-25T12:41:45.471Z,55.43
2023-03-25T12:42:45.471Z,55.43
2023-03-25T12:43:45.452Z,55.30
2023-03-25T12:44:45.441Z,54.97
2023-03-25T12:45:45.466Z,54.76
2023-03-25T12:46:45.429Z,55.07
2023-03-25T12:47:45.452Z,54.64
2023-03-25T12:48:45.419Z,54.44
2023-03-25T12:49:45.390Z,54.64
2023-03-25T12:50:45.403Z,55.10
2023-03-25T12:51:45.362Z,55.10
2023-03-25T12:52:45.355Z,54.56